sensor_id;sensor_type;location;lat;lon;timestamp;P1;durP1;ratioP1;P2;durP2;ratioP2
57047;SDS011;42934;54.294;18.598;2024-02-26T00:01:40;14.50;;;8.27;;
57047;SDS011;42934;54.294;18.598;2024-02-26T00:04:11;25.88;;;12.55;;
57047;SDS011;42934;54.294;18.598;2024-02-26T00:06:41;15.43;;;8.57;;
57047;SDS011;42934;54.294;18.598;2024-02-26T00:09:14;23.95;;;9.88;;
57047;SDS011;42934;54.294;18.598;2024-02-26T00:11:43;19.35;;;9.50;;
57047;SDS011;42934;54.294;18.598;2024-02-26T00:14:13;17.98;;;8.98;;
57047;SDS011;42934;54.294;18.598;2024-02-26T00:16:43;17.10;;;8.93;;
57047;SDS011;42934;54.294;18.598;2024-02-26T00:19:15;14.90;;;7.25;;
57047;SDS011;42934;54.294;18.598;2024-02-26T00:21:46;16.17;;;7.80;;
57047;SDS011;42934;54.294;18.598;2024-02-26T00:24:15;36.70;;;18.30;;
57047;SDS011;42934;54.294;18.598;2024-02-26T00:26:45;14.63;;;7.05;;
57047;SDS011;42934;54.294;18.598;2024-02-26T00:29:20;10.43;;;6.47;;
57047;SDS011;42934;54.294;18.598;2024-02-26T00:31:50;17.13;;;7.63;;
57047;SDS011;42934;54.294;18.598;2024-02-26T00:34:19;18.73;;;9.77;;
57047;SDS011;42934;54.294;18.598;2024-02-26T00:36:50;21.70;;;10.18;;
57047;SDS011;42934;54.294;18.598;2024-02-26T00:39:19;16.10;;;8.93;;
57047;SDS011;42934;54.294;18.598;2024-02-26T00:41:48;18.75;;;8.88;;
57047;SDS011;42934;54.294;18.598;2024-02-26T00:44:18;18.27;;;8.95;;
57047;SDS011;42934;54.294;18.598;2024-02-26T00:46:48;19.48;;;9.63;;
57047;SDS011;42934;54.294;18.598;2024-02-26T00:49:17;13.15;;;7.43;;
57047;SDS011;42934;54.294;18.598;2024-02-26T00:51:46;15.93;;;7.72;;
57047;SDS011;42934;54.294;18.598;2024-02-26T00:54:17;12.35;;;7.38;;
57047;SDS011;42934;54.294;18.598;2024-02-26T00:56:46;15.52;;;8.65;;
57047;SDS011;42934;54.294;18.598;2024-02-26T00:59:15;17.10;;;10.15;;
57047;SDS011;42934;54.294;18.598;2024-02-26T01:01:45;15.67;;;8.13;;
57047;SDS011;42934;54.294;18.598;2024-02-26T01:04:14;11.52;;;7.05;;
57047;SDS011;42934;54.294;18.598;2024-02-26T01:06:43;11.77;;;7.47;;
57047;SDS011;42934;54.294;18.598;2024-02-26T01:09:13;14.65;;;9.13;;
57047;SDS011;42934;54.294;18.598;2024-02-26T01:11:45;15.82;;;9.70;;
57047;SDS011;42934;54.294;18.598;2024-02-26T01:14:14;16.92;;;10.02;;
57047;SDS011;42934;54.294;18.598;2024-02-26T01:16:44;12.47;;;7.83;;
57047;SDS011;42934;54.294;18.598;2024-02-26T01:19:13;14.30;;;7.90;;
57047;SDS011;42934;54.294;18.598;2024-02-26T01:21:42;10.68;;;7.28;;
57047;SDS011;42934;54.294;18.598;2024-02-26T01:24:12;16.10;;;8.02;;
57047;SDS011;42934;54.294;18.598;2024-02-26T01:26:42;13.90;;;7.35;;
57047;SDS011;42934;54.294;18.598;2024-02-26T01:29:13;14.10;;;8.15;;
57047;SDS011;42934;54.294;18.598;2024-02-26T01:31:42;15.15;;;9.25;;
57047;SDS011;42934;54.294;18.598;2024-02-26T01:34:11;18.50;;;9.88;;
57047;SDS011;42934;54.294;18.598;2024-02-26T01:36:41;17.67;;;9.00;;
57047;SDS011;42934;54.294;18.598;2024-02-26T01:39:10;14.38;;;8.95;;
57047;SDS011;42934;54.294;18.598;2024-02-26T01:41:40;18.48;;;9.07;;
57047;SDS011;42934;54.294;18.598;2024-02-26T01:44:10;14.27;;;8.68;;
57047;SDS011;42934;54.294;18.598;2024-02-26T01:46:42;12.85;;;8.20;;
57047;SDS011;42934;54.294;18.598;2024-02-26T01:49:11;15.43;;;8.50;;
57047;SDS011;42934;54.294;18.598;2024-02-26T01:51:41;14.85;;;8.18;;
57047;SDS011;42934;54.294;18.598;2024-02-26T01:54:12;13.40;;;8.32;;
57047;SDS011;42934;54.294;18.598;2024-02-26T01:56:42;13.95;;;8.07;;
57047;SDS011;42934;54.294;18.598;2024-02-26T01:59:11;15.13;;;8.68;;
57047;SDS011;42934;54.294;18.598;2024-02-26T02:01:44;16.33;;;8.63;;
57047;SDS011;42934;54.294;18.598;2024-02-26T02:04:18;15.02;;;8.35;;
57047;SDS011;42934;54.294;18.598;2024-02-26T02:06:47;17.80;;;8.32;;
57047;SDS011;42934;54.294;18.598;2024-02-26T02:09:18;14.80;;;8.27;;
57047;SDS011;42934;54.294;18.598;2024-02-26T02:11:50;13.57;;;8.02;;
57047;SDS011;42934;54.294;18.598;2024-02-26T02:14:20;12.93;;;8.25;;
57047;SDS011;42934;54.294;18.598;2024-02-26T02:16:50;14.57;;;8.40;;
57047;SDS011;42934;54.294;18.598;2024-02-26T02:19:19;15.60;;;8.80;;
57047;SDS011;42934;54.294;18.598;2024-02-26T02:21:50;15.98;;;8.75;;
57047;SDS011;42934;54.294;18.598;2024-02-26T02:24:19;13.52;;;7.82;;
57047;SDS011;42934;54.294;18.598;2024-02-26T02:26:49;14.95;;;8.55;;
57047;SDS011;42934;54.294;18.598;2024-02-26T02:29:18;12.88;;;8.10;;
57047;SDS011;42934;54.294;18.598;2024-02-26T02:31:48;13.93;;;8.25;;
57047;SDS011;42934;54.294;18.598;2024-02-26T02:34:18;14.30;;;7.85;;
57047;SDS011;42934;54.294;18.598;2024-02-26T02:36:52;15.73;;;8.40;;
57047;SDS011;42934;54.294;18.598;2024-02-26T02:39:22;15.18;;;8.13;;
57047;SDS011;42934;54.294;18.598;2024-02-26T02:41:52;14.88;;;7.18;;
57047;SDS011;42934;54.294;18.598;2024-02-26T02:44:21;14.80;;;7.95;;
57047;SDS011;42934;54.294;18.598;2024-02-26T02:46:50;12.97;;;7.60;;
57047;SDS011;42934;54.294;18.598;2024-02-26T02:49:20;12.93;;;7.97;;
57047;SDS011;42934;54.294;18.598;2024-02-26T02:51:52;16.67;;;9.05;;
57047;SDS011;42934;54.294;18.598;2024-02-26T02:54:21;16.48;;;8.68;;
57047;SDS011;42934;54.294;18.598;2024-02-26T02:56:51;17.50;;;10.60;;
57047;SDS011;42934;54.294;18.598;2024-02-26T02:59:20;20.55;;;11.18;;
57047;SDS011;42934;54.294;18.598;2024-02-26T03:01:50;18.95;;;10.90;;
57047;SDS011;42934;54.294;18.598;2024-02-26T03:04:19;21.80;;;11.45;;
57047;SDS011;42934;54.294;18.598;2024-02-26T03:06:48;23.27;;;11.57;;
57047;SDS011;42934;54.294;18.598;2024-02-26T03:09:19;24.58;;;10.90;;
57047;SDS011;42934;54.294;18.598;2024-02-26T03:11:49;21.10;;;10.73;;
57047;SDS011;42934;54.294;18.598;2024-02-26T03:14:19;20.80;;;10.88;;
57047;SDS011;42934;54.294;18.598;2024-02-26T03:16:48;18.65;;;10.32;;
57047;SDS011;42934;54.294;18.598;2024-02-26T03:19:17;21.33;;;11.02;;
57047;SDS011;42934;54.294;18.598;2024-02-26T03:21:47;19.83;;;10.77;;
57047;SDS011;42934;54.294;18.598;2024-02-26T03:24:17;20.23;;;11.30;;
57047;SDS011;42934;54.294;18.598;2024-02-26T03:26:48;19.05;;;10.65;;
57047;SDS011;42934;54.294;18.598;2024-02-26T03:29:19;20.45;;;10.85;;
57047;SDS011;42934;54.294;18.598;2024-02-26T03:31:48;17.98;;;10.65;;
57047;SDS011;42934;54.294;18.598;2024-02-26T03:34:17;18.75;;;10.10;;
57047;SDS011;42934;54.294;18.598;2024-02-26T03:36:47;17.55;;;9.65;;
57047;SDS011;42934;54.294;18.598;2024-02-26T03:39:16;18.85;;;9.88;;
57047;SDS011;42934;54.294;18.598;2024-02-26T03:41:47;17.48;;;10.40;;
57047;SDS011;42934;54.294;18.598;2024-02-26T03:44:16;18.13;;;10.05;;
57047;SDS011;42934;54.294;18.598;2024-02-26T03:46:46;15.57;;;9.47;;
57047;SDS011;42934;54.294;18.598;2024-02-26T03:49:15;17.17;;;9.82;;
57047;SDS011;42934;54.294;18.598;2024-02-26T03:51:45;18.25;;;9.85;;
57047;SDS011;42934;54.294;18.598;2024-02-26T03:54:14;15.90;;;9.45;;
57047;SDS011;42934;54.294;18.598;2024-02-26T03:56:43;17.63;;;9.63;;
57047;SDS011;42934;54.294;18.598;2024-02-26T03:59:14;14.05;;;8.50;;
57047;SDS011;42934;54.294;18.598;2024-02-26T04:01:44;14.23;;;8.63;;
57047;SDS011;42934;54.294;18.598;2024-02-26T04:04:14;16.30;;;8.43;;
57047;SDS011;42934;54.294;18.598;2024-02-26T04:06:44;17.20;;;10.73;;
57047;SDS011;42934;54.294;18.598;2024-02-26T04:09:13;20.35;;;9.98;;
57047;SDS011;42934;54.294;18.598;2024-02-26T04:11:43;18.73;;;9.98;;
57047;SDS011;42934;54.294;18.598;2024-02-26T04:14:12;18.35;;;10.05;;
57047;SDS011;42934;54.294;18.598;2024-02-26T04:16:43;17.90;;;10.23;;
57047;SDS011;42934;54.294;18.598;2024-02-26T04:19:12;21.20;;;12.25;;
57047;SDS011;42934;54.294;18.598;2024-02-26T04:21:42;27.00;;;13.50;;
57047;SDS011;42934;54.294;18.598;2024-02-26T04:24:11;23.30;;;12.50;;
57047;SDS011;42934;54.294;18.598;2024-02-26T04:26:41;26.35;;;13.55;;
57047;SDS011;42934;54.294;18.598;2024-02-26T04:29:10;20.83;;;11.23;;
57047;SDS011;42934;54.294;18.598;2024-02-26T04:31:40;19.13;;;11.03;;
57047;SDS011;42934;54.294;18.598;2024-02-26T04:34:10;21.00;;;9.77;;
57047;SDS011;42934;54.294;18.598;2024-02-26T04:36:41;21.90;;;11.10;;
57047;SDS011;42934;54.294;18.598;2024-02-26T04:39:10;20.73;;;10.98;;
57047;SDS011;42934;54.294;18.598;2024-02-26T04:41:40;17.38;;;10.48;;
57047;SDS011;42934;54.294;18.598;2024-02-26T04:44:09;20.02;;;10.95;;
57047;SDS011;42934;54.294;18.598;2024-02-26T04:46:38;21.20;;;11.33;;
57047;SDS011;42934;54.294;18.598;2024-02-26T04:49:09;23.25;;;11.73;;
57047;SDS011;42934;54.294;18.598;2024-02-26T04:51:38;21.42;;;11.48;;
57047;SDS011;42934;54.294;18.598;2024-02-26T04:54:07;21.73;;;10.95;;
57047;SDS011;42934;54.294;18.598;2024-02-26T04:56:37;26.70;;;11.68;;
57047;SDS011;42934;54.294;18.598;2024-02-26T04:59:06;26.95;;;13.00;;
57047;SDS011;42934;54.294;18.598;2024-02-26T05:01:35;33.57;;;13.83;;
57047;SDS011;42934;54.294;18.598;2024-02-26T05:04:07;31.13;;;12.52;;
57047;SDS011;42934;54.294;18.598;2024-02-26T05:06:37;20.63;;;10.57;;
57047;SDS011;42934;54.294;18.598;2024-02-26T05:09:06;18.63;;;10.33;;
57047;SDS011;42934;54.294;18.598;2024-02-26T05:11:36;15.35;;;9.70;;
57047;SDS011;42934;54.294;18.598;2024-02-26T05:14:09;16.80;;;10.20;;
57047;SDS011;42934;54.294;18.598;2024-02-26T05:16:38;16.55;;;10.60;;
57047;SDS011;42934;54.294;18.598;2024-02-26T05:19:09;18.65;;;10.95;;
57047;SDS011;42934;54.294;18.598;2024-02-26T05:21:39;20.27;;;11.30;;
57047;SDS011;42934;54.294;18.598;2024-02-26T05:24:12;20.02;;;11.63;;
57047;SDS011;42934;54.294;18.598;2024-02-26T05:26:43;24.95;;;12.20;;
57047;SDS011;42934;54.294;18.598;2024-02-26T05:29:13;21.17;;;12.10;;
57047;SDS011;42934;54.294;18.598;2024-02-26T05:31:43;21.27;;;13.07;;
57047;SDS011;42934;54.294;18.598;2024-02-26T05:34:13;25.30;;;13.20;;
57047;SDS011;42934;54.294;18.598;2024-02-26T05:36:43;35.72;;;16.60;;
57047;SDS011;42934;54.294;18.598;2024-02-26T05:39:12;31.58;;;18.38;;
57047;SDS011;42934;54.294;18.598;2024-02-26T05:41:46;25.33;;;14.93;;
57047;SDS011;42934;54.294;18.598;2024-02-26T05:44:16;27.35;;;14.20;;
57047;SDS011;42934;54.294;18.598;2024-02-26T05:46:46;25.95;;;13.88;;
57047;SDS011;42934;54.294;18.598;2024-02-26T05:49:16;25.58;;;14.40;;
57047;SDS011;42934;54.294;18.598;2024-02-26T05:51:46;22.10;;;12.88;;
57047;SDS011;42934;54.294;18.598;2024-02-26T05:54:15;20.95;;;13.23;;
57047;SDS011;42934;54.294;18.598;2024-02-26T05:56:44;22.00;;;12.65;;
57047;SDS011;42934;54.294;18.598;2024-02-26T05:59:14;22.23;;;13.57;;
57047;SDS011;42934;54.294;18.598;2024-02-26T06:01:43;23.48;;;13.70;;
57047;SDS011;42934;54.294;18.598;2024-02-26T06:04:12;24.23;;;14.60;;
57047;SDS011;42934;54.294;18.598;2024-02-26T06:06:43;24.63;;;14.00;;
57047;SDS011;42934;54.294;18.598;2024-02-26T06:09:13;22.08;;;13.65;;
57047;SDS011;42934;54.294;18.598;2024-02-26T06:11:43;24.13;;;13.55;;
57047;SDS011;42934;54.294;18.598;2024-02-26T06:14:12;26.15;;;14.32;;
57047;SDS011;42934;54.294;18.598;2024-02-26T06:16:45;26.90;;;14.52;;
57047;SDS011;42934;54.294;18.598;2024-02-26T06:19:15;27.90;;;16.10;;
57047;SDS011;42934;54.294;18.598;2024-02-26T06:21:46;36.33;;;16.63;;
57047;SDS011;42934;54.294;18.598;2024-02-26T06:24:15;31.73;;;16.67;;
57047;SDS011;42934;54.294;18.598;2024-02-26T06:26:45;31.27;;;16.67;;
57047;SDS011;42934;54.294;18.598;2024-02-26T06:29:14;36.45;;;17.73;;
57047;SDS011;42934;54.294;18.598;2024-02-26T06:31:43;41.78;;;19.08;;
57047;SDS011;42934;54.294;18.598;2024-02-26T06:34:14;55.03;;;21.77;;
57047;SDS011;42934;54.294;18.598;2024-02-26T06:36:45;38.97;;;19.08;;
57047;SDS011;42934;54.294;18.598;2024-02-26T06:39:14;40.92;;;18.48;;
57047;SDS011;42934;54.294;18.598;2024-02-26T06:41:45;37.45;;;20.08;;
57047;SDS011;42934;54.294;18.598;2024-02-26T06:44:14;39.55;;;19.75;;
57047;SDS011;42934;54.294;18.598;2024-02-26T06:46:44;39.53;;;21.67;;
57047;SDS011;42934;54.294;18.598;2024-02-26T06:49:13;35.10;;;18.88;;
57047;SDS011;42934;54.294;18.598;2024-02-26T06:51:43;30.95;;;17.83;;
57047;SDS011;42934;54.294;18.598;2024-02-26T06:54:13;31.13;;;17.08;;
57047;SDS011;42934;54.294;18.598;2024-02-26T06:56:43;30.40;;;16.98;;
57047;SDS011;42934;54.294;18.598;2024-02-26T06:59:12;32.55;;;17.35;;
57047;SDS011;42934;54.294;18.598;2024-02-26T07:01:42;33.92;;;19.10;;
57047;SDS011;42934;54.294;18.598;2024-02-26T07:04:11;39.75;;;23.13;;
57047;SDS011;42934;54.294;18.598;2024-02-26T07:06:41;49.35;;;25.10;;
57047;SDS011;42934;54.294;18.598;2024-02-26T07:09:12;48.63;;;25.45;;
57047;SDS011;42934;54.294;18.598;2024-02-26T07:11:42;49.65;;;26.58;;
57047;SDS011;42934;54.294;18.598;2024-02-26T07:14:12;48.67;;;25.92;;
57047;SDS011;42934;54.294;18.598;2024-02-26T07:16:41;44.95;;;23.73;;
57047;SDS011;42934;54.294;18.598;2024-02-26T07:19:10;40.47;;;22.27;;
57047;SDS011;42934;54.294;18.598;2024-02-26T07:21:40;36.10;;;21.63;;
57047;SDS011;42934;54.294;18.598;2024-02-26T07:24:09;36.00;;;19.52;;
57047;SDS011;42934;54.294;18.598;2024-02-26T07:26:41;44.55;;;22.20;;
57047;SDS011;42934;54.294;18.598;2024-02-26T07:29:10;40.20;;;22.13;;
57047;SDS011;42934;54.294;18.598;2024-02-26T07:31:40;38.42;;;21.45;;
57047;SDS011;42934;54.294;18.598;2024-02-26T07:34:09;47.80;;;24.52;;
57047;SDS011;42934;54.294;18.598;2024-02-26T07:36:39;54.67;;;26.52;;
57047;SDS011;42934;54.294;18.598;2024-02-26T07:39:08;46.15;;;24.02;;
57047;SDS011;42934;54.294;18.598;2024-02-26T07:41:39;41.15;;;22.25;;
57047;SDS011;42934;54.294;18.598;2024-02-26T07:44:08;45.10;;;23.65;;
57047;SDS011;42934;54.294;18.598;2024-02-26T07:49:08;33.70;;;18.38;;
57047;SDS011;42934;54.294;18.598;2024-02-26T07:51:37;41.42;;;21.98;;
57047;SDS011;42934;54.294;18.598;2024-02-26T07:54:07;42.53;;;20.87;;
57047;SDS011;42934;54.294;18.598;2024-02-26T07:56:36;40.60;;;22.07;;
57047;SDS011;42934;54.294;18.598;2024-02-26T07:59:07;41.53;;;22.88;;
57047;SDS011;42934;54.294;18.598;2024-02-26T08:01:36;42.42;;;22.63;;
57047;SDS011;42934;54.294;18.598;2024-02-26T08:04:08;44.88;;;21.88;;
57047;SDS011;42934;54.294;18.598;2024-02-26T08:06:38;37.65;;;20.42;;
57047;SDS011;42934;54.294;18.598;2024-02-26T08:09:07;37.28;;;21.20;;
57047;SDS011;42934;54.294;18.598;2024-02-26T08:11:36;34.53;;;19.35;;
57047;SDS011;42934;54.294;18.598;2024-02-26T08:14:07;31.97;;;18.53;;
57047;SDS011;42934;54.294;18.598;2024-02-26T08:16:37;31.50;;;18.75;;
57047;SDS011;42934;54.294;18.598;2024-02-26T08:19:06;32.65;;;17.95;;
57047;SDS011;42934;54.294;18.598;2024-02-26T08:21:37;32.65;;;17.20;;
57047;SDS011;42934;54.294;18.598;2024-02-26T08:24:06;25.30;;;16.30;;
57047;SDS011;42934;54.294;18.598;2024-02-26T08:26:36;31.80;;;16.83;;
57047;SDS011;42934;54.294;18.598;2024-02-26T08:29:05;26.42;;;17.02;;
57047;SDS011;42934;54.294;18.598;2024-02-26T08:31:36;30.70;;;17.48;;
57047;SDS011;42934;54.294;18.598;2024-02-26T08:34:05;33.35;;;18.30;;
57047;SDS011;42934;54.294;18.598;2024-02-26T08:36:35;29.60;;;17.27;;
57047;SDS011;42934;54.294;18.598;2024-02-26T08:39:04;26.73;;;16.75;;
57047;SDS011;42934;54.294;18.598;2024-02-26T08:41:36;27.52;;;16.60;;
57047;SDS011;42934;54.294;18.598;2024-02-26T08:44:05;27.50;;;17.15;;
57047;SDS011;42934;54.294;18.598;2024-02-26T08:46:36;29.50;;;16.17;;
57047;SDS011;42934;54.294;18.598;2024-02-26T08:49:05;34.30;;;17.92;;
57047;SDS011;42934;54.294;18.598;2024-02-26T08:51:35;31.05;;;17.50;;
57047;SDS011;42934;54.294;18.598;2024-02-26T08:54:09;30.00;;;17.55;;
57047;SDS011;42934;54.294;18.598;2024-02-26T08:56:38;24.73;;;15.35;;
57047;SDS011;42934;54.294;18.598;2024-02-26T08:59:09;27.88;;;17.45;;
57047;SDS011;42934;54.294;18.598;2024-02-26T09:01:39;33.05;;;17.92;;
57047;SDS011;42934;54.294;18.598;2024-02-26T09:04:08;31.30;;;17.73;;
57047;SDS011;42934;54.294;18.598;2024-02-26T09:06:37;26.95;;;17.05;;
57047;SDS011;42934;54.294;18.598;2024-02-26T09:09:07;28.67;;;17.60;;
57047;SDS011;42934;54.294;18.598;2024-02-26T09:11:36;28.90;;;17.13;;
57047;SDS011;42934;54.294;18.598;2024-02-26T09:14:06;34.53;;;18.13;;
57047;SDS011;42934;54.294;18.598;2024-02-26T09:16:36;27.15;;;17.27;;
57047;SDS011;42934;54.294;18.598;2024-02-26T09:19:06;27.95;;;17.95;;
57047;SDS011;42934;54.294;18.598;2024-02-26T09:21:35;26.98;;;15.70;;
57047;SDS011;42934;54.294;18.598;2024-02-26T09:24:04;26.05;;;15.90;;
57047;SDS011;42934;54.294;18.598;2024-02-26T09:26:34;28.85;;;16.77;;
57047;SDS011;42934;54.294;18.598;2024-02-26T09:29:03;24.10;;;14.18;;
57047;SDS011;42934;54.294;18.598;2024-02-26T09:31:33;26.95;;;17.00;;
57047;SDS011;42934;54.294;18.598;2024-02-26T09:34:03;28.95;;;16.98;;
57047;SDS011;42934;54.294;18.598;2024-02-26T09:36:33;27.17;;;16.77;;
57047;SDS011;42934;54.294;18.598;2024-02-26T09:39:02;26.83;;;16.20;;
57047;SDS011;42934;54.294;18.598;2024-02-26T09:41:32;29.98;;;16.40;;
57047;SDS011;42934;54.294;18.598;2024-02-26T09:44:01;30.80;;;19.20;;
57047;SDS011;42934;54.294;18.598;2024-02-26T09:46:33;33.85;;;20.85;;
57047;SDS011;42934;54.294;18.598;2024-02-26T09:49:03;35.45;;;21.75;;
57047;SDS011;42934;54.294;18.598;2024-02-26T09:51:34;35.55;;;23.80;;
57047;SDS011;42934;54.294;18.598;2024-02-26T09:54:04;39.90;;;22.67;;
57047;SDS011;42934;54.294;18.598;2024-02-26T09:56:38;33.92;;;22.98;;
57047;SDS011;42934;54.294;18.598;2024-02-26T09:59:21;34.05;;;21.23;;
57047;SDS011;42934;54.294;18.598;2024-02-26T10:01:51;36.75;;;22.13;;
57047;SDS011;42934;54.294;18.598;2024-02-26T10:04:23;32.50;;;21.10;;
57047;SDS011;42934;54.294;18.598;2024-02-26T10:06:53;37.88;;;22.02;;
57047;SDS011;42934;54.294;18.598;2024-02-26T10:09:23;40.42;;;22.92;;
57047;SDS011;42934;54.294;18.598;2024-02-26T10:11:53;33.08;;;21.08;;
57047;SDS011;42934;54.294;18.598;2024-02-26T10:14:22;33.33;;;20.63;;
57047;SDS011;42934;54.294;18.598;2024-02-26T10:16:52;33.67;;;19.33;;
57047;SDS011;42934;54.294;18.598;2024-02-26T10:19:26;31.00;;;19.63;;
57047;SDS011;42934;54.294;18.598;2024-02-26T10:21:59;29.80;;;18.98;;
57047;SDS011;42934;54.294;18.598;2024-02-26T10:24:30;40.42;;;21.40;;
57047;SDS011;42934;54.294;18.598;2024-02-26T10:26:59;30.98;;;20.27;;
57047;SDS011;42934;54.294;18.598;2024-02-26T10:29:31;31.67;;;21.45;;
57047;SDS011;42934;54.294;18.598;2024-02-26T10:32:01;33.08;;;20.60;;
57047;SDS011;42934;54.294;18.598;2024-02-26T10:34:32;30.13;;;19.58;;
57047;SDS011;42934;54.294;18.598;2024-02-26T10:37:05;30.85;;;18.75;;
57047;SDS011;42934;54.294;18.598;2024-02-26T10:39:35;29.88;;;19.33;;
57047;SDS011;42934;54.294;18.598;2024-02-26T10:42:06;28.00;;;18.90;;
57047;SDS011;42934;54.294;18.598;2024-02-26T10:44:42;28.98;;;17.60;;
57047;SDS011;42934;54.294;18.598;2024-02-26T10:47:12;25.27;;;15.00;;
57047;SDS011;42934;54.294;18.598;2024-02-26T10:49:46;24.63;;;16.13;;
57047;SDS011;42934;54.294;18.598;2024-02-26T10:52:16;24.13;;;16.52;;
57047;SDS011;42934;54.294;18.598;2024-02-26T10:54:48;25.92;;;16.52;;
57047;SDS011;42934;54.294;18.598;2024-02-26T10:57:25;23.52;;;15.90;;
57047;SDS011;42934;54.294;18.598;2024-02-26T10:59:59;25.17;;;15.65;;
57047;SDS011;42934;54.294;18.598;2024-02-26T11:02:32;28.08;;;16.33;;
57047;SDS011;42934;54.294;18.598;2024-02-26T11:05:03;23.17;;;15.85;;
57047;SDS011;42934;54.294;18.598;2024-02-26T11:07:34;24.40;;;16.30;;
57047;SDS011;42934;54.294;18.598;2024-02-26T11:12:35;28.35;;;17.73;;
57047;SDS011;42934;54.294;18.598;2024-02-26T11:15:07;27.33;;;17.70;;
57047;SDS011;42934;54.294;18.598;2024-02-26T11:17:37;30.58;;;18.77;;
57047;SDS011;42934;54.294;18.598;2024-02-26T11:20:11;33.83;;;19.23;;
57047;SDS011;42934;54.294;18.598;2024-02-26T11:22:42;25.13;;;17.20;;
57047;SDS011;42934;54.294;18.598;2024-02-26T11:25:11;25.67;;;17.48;;
57047;SDS011;42934;54.294;18.598;2024-02-26T11:27:42;24.90;;;16.25;;
57047;SDS011;42934;54.294;18.598;2024-02-26T11:30:14;25.80;;;17.20;;
57047;SDS011;42934;54.294;18.598;2024-02-26T11:32:46;20.52;;;14.98;;
57047;SDS011;42934;54.294;18.598;2024-02-26T11:37:53;26.58;;;16.77;;
57047;SDS011;42934;54.294;18.598;2024-02-26T11:40:24;26.85;;;17.08;;
57047;SDS011;42934;54.294;18.598;2024-02-26T11:42:53;24.73;;;16.85;;
57047;SDS011;42934;54.294;18.598;2024-02-26T11:45:47;24.50;;;15.98;;
57047;SDS011;42934;54.294;18.598;2024-02-26T11:48:28;22.77;;;16.63;;
57047;SDS011;42934;54.294;18.598;2024-02-26T11:50:59;22.90;;;15.80;;
57047;SDS011;42934;54.294;18.598;2024-02-26T11:53:30;24.30;;;17.27;;
57047;SDS011;42934;54.294;18.598;2024-02-26T11:58:59;25.23;;;16.42;;
57047;SDS011;42934;54.294;18.598;2024-02-26T12:01:39;25.17;;;16.27;;
57047;SDS011;42934;54.294;18.598;2024-02-26T12:04:16;23.02;;;15.93;;
57047;SDS011;42934;54.294;18.598;2024-02-26T12:06:50;24.10;;;16.55;;
57047;SDS011;42934;54.294;18.598;2024-02-26T12:09:30;24.27;;;16.38;;
57047;SDS011;42934;54.294;18.598;2024-02-26T12:12:04;25.35;;;17.05;;
57047;SDS011;42934;54.294;18.598;2024-02-26T12:14:37;25.80;;;16.85;;
57047;SDS011;42934;54.294;18.598;2024-02-26T12:17:07;21.63;;;15.15;;
57047;SDS011;42934;54.294;18.598;2024-02-26T12:19:47;22.77;;;15.63;;
57047;SDS011;42934;54.294;18.598;2024-02-26T12:22:18;24.05;;;15.93;;
57047;SDS011;42934;54.294;18.598;2024-02-26T12:24:48;25.58;;;16.60;;
57047;SDS011;42934;54.294;18.598;2024-02-26T12:27:27;25.97;;;17.23;;
57047;SDS011;42934;54.294;18.598;2024-02-26T12:29:57;25.77;;;17.83;;
57047;SDS011;42934;54.294;18.598;2024-02-26T12:32:26;26.10;;;18.73;;
57047;SDS011;42934;54.294;18.598;2024-02-26T12:34:56;27.85;;;17.60;;
57047;SDS011;42934;54.294;18.598;2024-02-26T12:37:28;28.27;;;17.75;;
57047;SDS011;42934;54.294;18.598;2024-02-26T12:39:58;25.83;;;17.73;;
57047;SDS011;42934;54.294;18.598;2024-02-26T12:42:28;24.70;;;17.92;;
57047;SDS011;42934;54.294;18.598;2024-02-26T12:44:59;26.35;;;18.17;;
57047;SDS011;42934;54.294;18.598;2024-02-26T12:47:28;27.13;;;19.15;;
57047;SDS011;42934;54.294;18.598;2024-02-26T12:49:58;29.08;;;18.60;;
57047;SDS011;42934;54.294;18.598;2024-02-26T12:52:32;28.45;;;19.23;;
57047;SDS011;42934;54.294;18.598;2024-02-26T12:55:03;30.67;;;19.33;;
57047;SDS011;42934;54.294;18.598;2024-02-26T12:57:35;34.47;;;20.55;;
57047;SDS011;42934;54.294;18.598;2024-02-26T13:00:06;27.02;;;19.02;;
57047;SDS011;42934;54.294;18.598;2024-02-26T13:02:37;28.88;;;20.70;;
57047;SDS011;42934;54.294;18.598;2024-02-26T13:05:10;31.95;;;22.17;;
57047;SDS011;42934;54.294;18.598;2024-02-26T13:07:42;36.92;;;22.45;;
57047;SDS011;42934;54.294;18.598;2024-02-26T13:10:14;34.92;;;22.67;;
57047;SDS011;42934;54.294;18.598;2024-02-26T13:12:44;35.90;;;22.67;;
57047;SDS011;42934;54.294;18.598;2024-02-26T13:15:15;33.33;;;22.83;;
57047;SDS011;42934;54.294;18.598;2024-02-26T13:17:45;36.00;;;23.00;;
57047;SDS011;42934;54.294;18.598;2024-02-26T13:20:24;35.78;;;22.42;;
57047;SDS011;42934;54.294;18.598;2024-02-26T13:23:03;39.73;;;24.03;;
57047;SDS011;42934;54.294;18.598;2024-02-26T13:25:34;33.45;;;21.50;;
57047;SDS011;42934;54.294;18.598;2024-02-26T13:28:13;34.22;;;23.33;;
57047;SDS011;42934;54.294;18.598;2024-02-26T13:30:49;35.53;;;23.23;;
57047;SDS011;42934;54.294;18.598;2024-02-26T13:33:19;35.58;;;22.52;;
57047;SDS011;42934;54.294;18.598;2024-02-26T13:35:50;36.08;;;23.95;;
57047;SDS011;42934;54.294;18.598;2024-02-26T13:38:21;37.88;;;23.88;;
57047;SDS011;42934;54.294;18.598;2024-02-26T13:40:51;40.45;;;24.08;;
57047;SDS011;42934;54.294;18.598;2024-02-26T13:43:20;41.88;;;26.27;;
57047;SDS011;42934;54.294;18.598;2024-02-26T13:45:51;41.47;;;25.63;;
57047;SDS011;42934;54.294;18.598;2024-02-26T13:48:20;37.70;;;25.10;;
57047;SDS011;42934;54.294;18.598;2024-02-26T13:50:50;42.72;;;26.20;;
57047;SDS011;42934;54.294;18.598;2024-02-26T13:53:19;37.47;;;25.08;;
57047;SDS011;42934;54.294;18.598;2024-02-26T13:55:51;42.05;;;26.00;;
57047;SDS011;42934;54.294;18.598;2024-02-26T13:58:20;44.08;;;25.38;;
57047;SDS011;42934;54.294;18.598;2024-02-26T14:00:50;41.58;;;25.40;;
57047;SDS011;42934;54.294;18.598;2024-02-26T14:03:20;48.17;;;27.37;;
57047;SDS011;42934;54.294;18.598;2024-02-26T14:05:49;41.70;;;26.85;;
57047;SDS011;42934;54.294;18.598;2024-02-26T14:08:19;47.60;;;26.45;;
57047;SDS011;42934;54.294;18.598;2024-02-26T14:10:50;61.28;;;35.20;;
57047;SDS011;42934;54.294;18.598;2024-02-26T14:13:19;50.72;;;30.90;;
57047;SDS011;42934;54.294;18.598;2024-02-26T14:15:49;51.90;;;29.27;;
57047;SDS011;42934;54.294;18.598;2024-02-26T14:18:18;58.40;;;32.20;;
57047;SDS011;42934;54.294;18.598;2024-02-26T14:20:47;50.70;;;29.35;;
57047;SDS011;42934;54.294;18.598;2024-02-26T14:23:18;55.25;;;31.90;;
57047;SDS011;42934;54.294;18.598;2024-02-26T14:25:49;52.13;;;31.52;;
57047;SDS011;42934;54.294;18.598;2024-02-26T14:28:18;48.33;;;29.08;;
57047;SDS011;42934;54.294;18.598;2024-02-26T14:30:55;48.42;;;28.38;;
57047;SDS011;42934;54.294;18.598;2024-02-26T14:33:24;47.75;;;28.58;;
57047;SDS011;42934;54.294;18.598;2024-02-26T14:35:53;50.60;;;28.50;;
57047;SDS011;42934;54.294;18.598;2024-02-26T14:38:23;51.92;;;29.70;;
57047;SDS011;42934;54.294;18.598;2024-02-26T14:40:54;50.80;;;30.13;;